Wetterdaten: Woche 30.05.11 - 05.06.11 (KW22)
Datum Zeit Temperatur Luftfeuchte Luftdruck Niederschlag Windrichtung Sonnenschein Solar Wind
30.05.2011 00:00 12,2 C 82 % 1015,7 hPa 0,0 l/m N 0,00 h 0 W/m 0,0 km/h (0 Bft)
30.05.2011 01:00 11,5 C 83 % 1015,5 hPa 0,0 l/m N 0,00 h 0 W/m 0,0 km/h (0 Bft)
30.05.2011 02:00 10,9 C 85 % 1015,3 hPa 0,0 l/m N 0,00 h 0 W/m 0,3 km/h (0 Bft)
30.05.2011 03:00 9,8 C 90 % 1015,2 hPa 0,0 l/m N 0,00 h 0 W/m 0,0 km/h (0 Bft)
30.05.2011 04:00 9,2 C 92 % 1015,0 hPa 0,0 l/m N 0,00 h 0 W/m 0,0 km/h (0 Bft)
30.05.2011 05:00 8,9 C 92 % 1014,7 hPa 0,0 l/m N 0,00 h 9 W/m 0,1 km/h (0 Bft)
30.05.2011 06:00 10,1 C 90 % 1014,7 hPa 0,0 l/m N 0,58 h 80 W/m 2,1 km/h (1 Bft)
30.05.2011 07:00 12,8 C 82 % 1014,5 hPa 0,0 l/m O-NO 1,00 h 249 W/m 4,3 km/h (1 Bft)
30.05.2011 08:00 15,8 C 72 % 1014,5 hPa 0,0 l/m O-NO 1,00 h 414 W/m 3,5 km/h (1 Bft)
30.05.2011 09:00 18,7 C 63 % 1014,3 hPa 0,0 l/m O-NO 1,00 h 583 W/m 4,1 km/h (1 Bft)
30.05.2011 10:00 21,2 C 56 % 1014,0 hPa 0,0 l/m O 1,00 h 734 W/m 5,5 km/h (1 Bft)
30.05.2011 11:00 22,9 C 51 % 1014,0 hPa 0,0 l/m S 1,00 h 842 W/m 6,0 km/h (2 Bft)
30.05.2011 12:00 24,4 C 44 % 1013,6 hPa 0,0 l/m W-SW 1,00 h 916 W/m 6,8 km/h (2 Bft)
30.05.2011 13:00 25,6 C 40 % 1012,9 hPa 0,0 l/m SW 1,00 h 930 W/m 9,4 km/h (2 Bft)
30.05.2011 14:00 26,7 C 39 % 1012,2 hPa 0,0 l/m SW 1,00 h 902 W/m 10,3 km/h (2 Bft)
30.05.2011 15:00 27,3 C 39 % 1011,5 hPa 0,0 l/m S-SW 1,00 h 806 W/m 10,6 km/h (2 Bft)
30.05.2011 16:00 27,5 C 37 % 1010,9 hPa 0,0 l/m W-SW 1,00 h 683 W/m 10,5 km/h (2 Bft)
30.05.2011 17:00 27,5 C 35 % 1010,3 hPa 0,0 l/m SW 1,00 h 570 W/m 11,0 km/h (2 Bft)
30.05.2011 18:00 27,1 C 37 % 1009,8 hPa 0,0 l/m W-SW 1,00 h 406 W/m 8,2 km/h (2 Bft)
30.05.2011 19:00 25,5 C 42 % 1009,3 hPa 0,0 l/m SW 0,92 h 208 W/m 5,3 km/h (1 Bft)
30.05.2011 20:00 22,7 C 55 % 1009,1 hPa 0,0 l/m N 0,25 h 34 W/m 0,8 km/h (0 Bft)
30.05.2011 21:00 19,4 C 68 % 1009,2 hPa 0,0 l/m N 0,00 h 6 W/m 0,0 km/h (0 Bft)
30.05.2011 22:00 17,6 C 71 % 1009,4 hPa 0,0 l/m N 0,00 h 0 W/m 0,0 km/h (0 Bft)
30.05.2011 23:00 16,4 C 79 % 1009,7 hPa 0,0 l/m N 0,00 h 0 W/m 0,4 km/h (0 Bft)
31.05.2011 00:00 15,1 C 83 % 1009,7 hPa 0,0 l/m N 0,00 h 0 W/m 0,1 km/h (0 Bft)
31.05.2011 01:00 14,5 C 86 % 1009,9 hPa 0,0 l/m N 0,00 h 0 W/m 1,5 km/h (1 Bft)
31.05.2011 02:00 15,6 C 77 % 1009,9 hPa 0,0 l/m SW 0,00 h 0 W/m 7,6 km/h (2 Bft)
31.05.2011 03:00 14,9 C 81 % 1010,1 hPa 0,0 l/m S-SO 0,00 h 0 W/m 4,8 km/h (1 Bft)
31.05.2011 04:00 14,8 C 82 % 1010,2 hPa 0,0 l/m N 0,00 h 0 W/m 1,6 km/h (1 Bft)
31.05.2011 05:00 15,2 C 80 % 1010,2 hPa 0,0 l/m N 0,00 h 6 W/m 2,4 km/h (1 Bft)
31.05.2011 06:00 14,9 C 83 % 1010,4 hPa 0,0 l/m N 0,00 h 22 W/m 2,0 km/h (1 Bft)
31.05.2011 07:00 16,4 C 78 % 1010,7 hPa 0,0 l/m S-SW 0,75 h 198 W/m 4,5 km/h (1 Bft)
31.05.2011 08:00 18,8 C 69 % 1010,6 hPa 0,0 l/m SW 1,00 h 411 W/m 15,3 km/h (3 Bft)
31.05.2011 09:00 20,4 C 65 % 1010,5 hPa 0,0 l/m SW 1,00 h 569 W/m 13,8 km/h (3 Bft)
31.05.2011 10:00 21,9 C 56 % 1010,4 hPa 0,0 l/m W-SW 1,00 h 722 W/m 20,0 km/h (4 Bft)
31.05.2011 11:00 22,6 C 52 % 1010,4 hPa 0,0 l/m W-SW 0,92 h 771 W/m 22,4 km/h (4 Bft)
31.05.2011 12:00 22,7 C 51 % 1010,3 hPa 0,0 l/m W-SW 0,58 h 665 W/m 22,6 km/h (4 Bft)
31.05.2011 13:00 22,1 C 54 % 1009,9 hPa 0,0 l/m W 0,08 h 412 W/m 14,5 km/h (3 Bft)
31.05.2011 14:00 22,9 C 53 % 1009,5 hPa 0,0 l/m W-NW 0,67 h 665 W/m 19,6 km/h (3 Bft)
31.05.2011 15:00 22,0 C 54 % 1009,6 hPa 0,0 l/m W 0,08 h 272 W/m 16,0 km/h (3 Bft)
31.05.2011 16:00 21,5 C 54 % 1009,2 hPa 0,0 l/m N 0,17 h 230 W/m 13,6 km/h (3 Bft)
31.05.2011 17:00 20,1 C 59 % 1009,3 hPa 0,0 l/m N-NW 0,00 h 50 W/m 17,7 km/h (3 Bft)
31.05.2011 18:00 17,9 C 70 % 1010,1 hPa 0,4 l/m N 0,00 h 17 W/m 20,0 km/h (4 Bft)
31.05.2011 19:00 14,6 C 84 % 1011,3 hPa 5,8 l/m N-NW 0,00 h 8 W/m 16,1 km/h (3 Bft)
31.05.2011 20:00 13,0 C 93 % 1012,2 hPa 0,8 l/m N-NW 0,00 h 7 W/m 13,2 km/h (3 Bft)
31.05.2011 21:00 12,2 C 93 % 1013,4 hPa 2,0 l/m N-NW 0,00 h 0 W/m 24,4 km/h (4 Bft)
31.05.2011 22:00 10,8 C 93 % 1015,0 hPa 2,2 l/m W 0,00 h 0 W/m 21,7 km/h (4 Bft)
31.05.2011 23:00 10,1 C 94 % 1016,5 hPa 2,4 l/m W-NW 0,00 h 0 W/m 13,1 km/h (3 Bft)
01.06.2011 00:00 9,6 C 95 % 1017,2 hPa 1,0 l/m W-SW 0,00 h 0 W/m 8,0 km/h (2 Bft)
01.06.2011 01:00 9,3 C 95 % 1017,6 hPa 0,4 l/m W 0,00 h 0 W/m 10,1 km/h (2 Bft)
01.06.2011 02:00 9,1 C 96 % 1017,7 hPa 1,0 l/m W-SW 0,00 h 0 W/m 11,4 km/h (2 Bft)
01.06.2011 03:00 8,8 C 96 % 1017,6 hPa 1,2 l/m W-SW 0,00 h 0 W/m 13,3 km/h (3 Bft)
01.06.2011 04:00 8,8 C 96 % 1017,6 hPa 0,8 l/m W-SW 0,00 h 0 W/m 10,7 km/h (2 Bft)
01.06.2011 05:00 8,7 C 97 % 1017,7 hPa 1,2 l/m W-SW 0,00 h 0 W/m 8,9 km/h (2 Bft)
01.06.2011 06:00 8,8 C 97 % 1018,1 hPa 0,2 l/m W-SW 0,00 h 8 W/m 6,9 km/h (2 Bft)
01.06.2011 07:00 9,0 C 97 % 1018,5 hPa 0,4 l/m W-SW 0,00 h 26 W/m 4,9 km/h (1 Bft)
01.06.2011 08:00 9,4 C 98 % 1018,8 hPa 0,2 l/m N-NW 0,00 h 63 W/m 5,5 km/h (1 Bft)
01.06.2011 09:00 9,6 C 97 % 1019,4 hPa 0,6 l/m N-NO 0,00 h 111 W/m 7,5 km/h (2 Bft)
01.06.2011 10:00 10,0 C 96 % 1019,8 hPa 0,0 l/m N 0,00 h 130 W/m 11,9 km/h (2 Bft)
01.06.2011 11:00 10,2 C 96 % 1020,2 hPa 0,2 l/m N 0,00 h 142 W/m 11,1 km/h (2 Bft)
01.06.2011 12:00 10,4 C 97 % 1020,6 hPa 0,2 l/m N 0,00 h 159 W/m 10,8 km/h (2 Bft)
01.06.2011 13:00 10,8 C 96 % 1020,9 hPa 0,2 l/m N-NO 0,00 h 135 W/m 15,2 km/h (3 Bft)
01.06.2011 14:00 10,7 C 96 % 1021,1 hPa 0,0 l/m NO 0,00 h 142 W/m 16,6 km/h (3 Bft)
01.06.2011 15:00 10,3 C 95 % 1021,4 hPa 0,0 l/m O-NO 0,00 h 85 W/m 16,0 km/h (3 Bft)
01.06.2011 16:00 9,7 C 95 % 1021,7 hPa 0,0 l/m N-NO 0,00 h 70 W/m 17,0 km/h (3 Bft)
01.06.2011 17:00 9,7 C 93 % 1022,2 hPa 0,0 l/m N-NO 0,00 h 52 W/m 18,0 km/h (3 Bft)
01.06.2011 18:00 9,6 C 93 % 1022,7 hPa 0,0 l/m N-NO 0,00 h 30 W/m 14,9 km/h (3 Bft)
01.06.2011 19:00 9,5 C 94 % 1023,5 hPa 0,0 l/m N-NO 0,00 h 15 W/m 15,2 km/h (3 Bft)
01.06.2011 20:00 9,4 C 95 % 1024,0 hPa 0,0 l/m N-NO 0,00 h 6 W/m 12,5 km/h (3 Bft)
01.06.2011 21:00 9,3 C 96 % 1024,6 hPa 0,0 l/m N-NO 0,00 h 0 W/m 10,5 km/h (2 Bft)
01.06.2011 22:00 9,2 C 96 % 1025,2 hPa 0,0 l/m NO 0,00 h 0 W/m 12,6 km/h (3 Bft)
01.06.2011 23:00 9,2 C 96 % 1025,3 hPa 0,0 l/m N-NO 0,00 h 0 W/m 12,5 km/h (3 Bft)
02.06.2011 00:00 9,3 C 97 % 1025,1 hPa 0,0 l/m NO 0,00 h 0 W/m 11,3 km/h (2 Bft)
02.06.2011 01:00 9,2 C 97 % 1024,8 hPa 0,0 l/m NO 0,00 h 0 W/m 15,4 km/h (3 Bft)
02.06.2011 02:00 9,2 C 97 % 1024,8 hPa 0,0 l/m NO 0,00 h 0 W/m 13,3 km/h (3 Bft)
02.06.2011 03:00 9,1 C 98 % 1024,4 hPa 0,0 l/m O-NO 0,00 h 0 W/m 14,0 km/h (3 Bft)
02.06.2011 04:00 9,1 C 98 % 1024,3 hPa 0,0 l/m NO 0,00 h 0 W/m 16,8 km/h (3 Bft)
02.06.2011 05:00 9,1 C 98 % 1024,3 hPa 0,0 l/m O-NO 0,00 h 5 W/m 20,1 km/h (4 Bft)
02.06.2011 06:00 9,3 C 98 % 1024,6 hPa 0,0 l/m O-NO 0,00 h 16 W/m 18,6 km/h (3 Bft)
02.06.2011 07:00 9,7 C 98 % 1024,8 hPa 0,0 l/m NO 0,00 h 50 W/m 18,6 km/h (3 Bft)
02.06.2011 08:00 10,6 C 96 % 1024,9 hPa 0,0 l/m O 0,00 h 129 W/m 20,5 km/h (4 Bft)
02.06.2011 09:00 11,2 C 94 % 1025,4 hPa 0,0 l/m NO 0,00 h 84 W/m 18,6 km/h (3 Bft)
02.06.2011 10:00 11,6 C 92 % 1025,5 hPa 0,0 l/m NO 0,00 h 82 W/m 19,4 km/h (3 Bft)
02.06.2011 11:00 12,8 C 90 % 1025,6 hPa 0,0 l/m NO 0,00 h 155 W/m 19,0 km/h (3 Bft)
02.06.2011 12:00 14,8 C 85 % 1025,3 hPa 0,0 l/m O-NO 0,33 h 490 W/m 24,4 km/h (4 Bft)
02.06.2011 13:00 16,1 C 80 % 1025,1 hPa 0,0 l/m O-NO 0,00 h 272 W/m 26,0 km/h (4 Bft)
02.06.2011 14:00 16,1 C 80 % 1024,9 hPa 0,0 l/m O-NO 0,08 h 338 W/m 27,4 km/h (4 Bft)
02.06.2011 15:00 16,9 C 77 % 1024,7 hPa 0,0 l/m O-NO 0,08 h 285 W/m 30,7 km/h (5 Bft)
02.06.2011 16:00 16,4 C 78 % 1024,7 hPa 0,2 l/m NO 0,00 h 175 W/m 33,3 km/h (5 Bft)
02.06.2011 17:00 16,5 C 78 % 1024,7 hPa 0,0 l/m O-NO 0,00 h 101 W/m 26,7 km/h (4 Bft)
02.06.2011 18:00 16,4 C 78 % 1024,4 hPa 0,0 l/m O-NO 0,00 h 89 W/m 24,7 km/h (4 Bft)
02.06.2011 19:00 16,0 C 79 % 1024,5 hPa 0,0 l/m O-NO 0,00 h 39 W/m 25,5 km/h (4 Bft)
02.06.2011 20:00 15,6 C 81 % 1024,7 hPa 0,0 l/m O 0,00 h 12 W/m 22,4 km/h (4 Bft)
02.06.2011 21:00 15,2 C 82 % 1025,1 hPa 0,0 l/m O 0,00 h 0 W/m 18,0 km/h (3 Bft)
02.06.2011 22:00 14,9 C 80 % 1025,3 hPa 0,0 l/m O-NO 0,00 h 0 W/m 19,7 km/h (3 Bft)
02.06.2011 23:00 14,5 C 75 % 1025,3 hPa 0,0 l/m O 0,00 h 0 W/m 19,0 km/h (3 Bft)
03.06.2011 00:00 14,0 C 73 % 1025,0 hPa 0,0 l/m NO 0,00 h 0 W/m 16,4 km/h (3 Bft)
03.06.2011 01:00 13,0 C 72 % 1024,6 hPa 0,0 l/m NO 0,00 h 0 W/m 14,8 km/h (3 Bft)
03.06.2011 02:00 12,4 C 74 % 1024,3 hPa 0,0 l/m O-NO 0,00 h 0 W/m 14,9 km/h (3 Bft)
03.06.2011 03:00 12,1 C 78 % 1023,7 hPa 0,0 l/m O-NO 0,00 h 0 W/m 14,6 km/h (3 Bft)
03.06.2011 04:00 11,6 C 82 % 1023,3 hPa 0,0 l/m O-NO 0,00 h 0 W/m 10,6 km/h (2 Bft)
03.06.2011 05:00 11,4 C 87 % 1023,0 hPa 0,0 l/m NO 0,00 h 8 W/m 12,5 km/h (3 Bft)
03.06.2011 06:00 12,4 C 86 % 1022,7 hPa 0,0 l/m NO 0,25 h 72 W/m 13,7 km/h (3 Bft)
03.06.2011 07:00 13,4 C 83 % 1022,5 hPa 0,0 l/m NO 0,42 h 140 W/m 19,3 km/h (3 Bft)
03.06.2011 08:00 13,9 C 84 % 1022,7 hPa 0,0 l/m O 0,00 h 113 W/m 20,9 km/h (4 Bft)
03.06.2011 09:00 14,7 C 83 % 1022,6 hPa 0,0 l/m O-NO 0,00 h 125 W/m 17,8 km/h (3 Bft)
03.06.2011 10:00 16,5 C 78 % 1021,9 hPa 0,0 l/m O 0,08 h 327 W/m 22,1 km/h (4 Bft)
03.06.2011 11:00 18,4 C 72 % 1021,6 hPa 0,0 l/m O-SO 0,50 h 656 W/m 26,0 km/h (4 Bft)
03.06.2011 12:00 18,5 C 71 % 1021,6 hPa 0,0 l/m O 0,25 h 458 W/m 29,4 km/h (5 Bft)
03.06.2011 13:00 18,6 C 71 % 1021,4 hPa 0,0 l/m O 0,17 h 440 W/m 27,8 km/h (4 Bft)
03.06.2011 14:00 19,6 C 70 % 1020,6 hPa 0,0 l/m O 0,50 h 482 W/m 28,8 km/h (5 Bft)
03.06.2011 15:00 20,5 C 68 % 1019,9 hPa 0,0 l/m O-SO 0,50 h 531 W/m 29,8 km/h (5 Bft)
03.06.2011 16:00 21,5 C 66 % 1019,3 hPa 0,0 l/m O 0,58 h 512 W/m 29,0 km/h (5 Bft)
03.06.2011 17:00 21,0 C 69 % 1018,8 hPa 0,0 l/m O 0,00 h 149 W/m 23,2 km/h (4 Bft)
03.06.2011 18:00 20,7 C 72 % 1018,2 hPa 0,0 l/m O-NO 0,08 h 117 W/m 14,9 km/h (3 Bft)
03.06.2011 19:00 21,1 C 70 % 1017,9 hPa 0,0 l/m O-NO 0,00 h 75 W/m 17,0 km/h (3 Bft)
03.06.2011 20:00 20,4 C 72 % 1017,8 hPa 0,0 l/m O-NO 0,00 h 34 W/m 15,3 km/h (3 Bft)
03.06.2011 21:00 19,3 C 75 % 1017,9 hPa 0,0 l/m NO 0,00 h 6 W/m 10,2 km/h (2 Bft)
03.06.2011 22:00 18,4 C 77 % 1017,8 hPa 0,0 l/m NO 0,00 h 0 W/m 8,7 km/h (2 Bft)
03.06.2011 23:00 17,9 C 79 % 1017,7 hPa 0,0 l/m NO 0,00 h 0 W/m 8,4 km/h (2 Bft)
04.06.2011 00:00 17,3 C 83 % 1017,3 hPa 0,0 l/m O-NO 0,00 h 0 W/m 6,0 km/h (2 Bft)
04.06.2011 01:00 16,9 C 86 % 1016,5 hPa 0,0 l/m O 0,00 h 0 W/m 8,6 km/h (2 Bft)
04.06.2011 02:00 16,2 C 89 % 1015,7 hPa 0,0 l/m N-NO 0,00 h 0 W/m 9,9 km/h (2 Bft)
04.06.2011 03:00 15,3 C 92 % 1015,2 hPa 0,0 l/m N-NO 0,00 h 0 W/m 10,5 km/h (2 Bft)
04.06.2011 04:00 15,5 C 92 % 1015,1 hPa 0,0 l/m N 0,00 h 0 W/m 7,6 km/h (2 Bft)
04.06.2011 05:00 15,5 C 89 % 1015,0 hPa 0,0 l/m NO 0,00 h 8 W/m 13,0 km/h (3 Bft)
04.06.2011 06:00 15,2 C 89 % 1014,9 hPa 0,0 l/m O-NO 0,00 h 26 W/m 12,0 km/h (2 Bft)
04.06.2011 07:00 15,3 C 89 % 1014,7 hPa 0,0 l/m O-NO 0,00 h 76 W/m 13,3 km/h (3 Bft)
04.06.2011 08:00 15,6 C 88 % 1014,4 hPa 0,0 l/m NO 0,00 h 98 W/m 13,2 km/h (3 Bft)
04.06.2011 09:00 16,2 C 86 % 1014,4 hPa 0,0 l/m O-NO 0,00 h 181 W/m 12,2 km/h (2 Bft)
04.06.2011 10:00 17,8 C 80 % 1014,4 hPa 0,0 l/m O 0,25 h 340 W/m 12,3 km/h (3 Bft)
04.06.2011 11:00 19,3 C 76 % 1014,0 hPa 0,0 l/m N-NO 0,58 h 596 W/m 8,2 km/h (2 Bft)
04.06.2011 12:00 20,7 C 71 % 1013,5 hPa 0,0 l/m O-NO 0,25 h 458 W/m 9,2 km/h (2 Bft)
04.06.2011 13:00 22,4 C 66 % 1013,0 hPa 0,0 l/m O-SO 0,83 h 909 W/m 9,1 km/h (2 Bft)
04.06.2011 14:00 22,9 C 64 % 1012,3 hPa 0,0 l/m SO 0,33 h 458 W/m 8,0 km/h (2 Bft)
04.06.2011 15:00 23,6 C 64 % 1011,7 hPa 0,0 l/m S-SO 0,33 h 442 W/m 9,2 km/h (2 Bft)
04.06.2011 16:00 22,2 C 71 % 1010,9 hPa 0,0 l/m S-SW 0,00 h 177 W/m 7,5 km/h (2 Bft)
04.06.2011 17:00 21,4 C 75 % 1010,0 hPa 0,0 l/m S-SW 0,00 h 72 W/m 5,5 km/h (1 Bft)
04.06.2011 18:00 20,4 C 80 % 1009,4 hPa 0,0 l/m S-SW 0,00 h 50 W/m 1,6 km/h (1 Bft)
04.06.2011 19:00 19,8 C 82 % 1009,2 hPa 0,0 l/m S-SW 0,00 h 51 W/m 2,8 km/h (1 Bft)
04.06.2011 20:00 19,0 C 86 % 1009,2 hPa 0,0 l/m N 0,00 h 20 W/m 1,5 km/h (1 Bft)
04.06.2011 21:00 18,0 C 90 % 1009,4 hPa 0,0 l/m N 0,00 h 5 W/m 2,3 km/h (1 Bft)
04.06.2011 22:00 17,0 C 93 % 1009,9 hPa 0,0 l/m S-SO 0,00 h 0 W/m 2,9 km/h (1 Bft)
04.06.2011 23:00 16,8 C 91 % 1008,8 hPa 0,0 l/m S 0,00 h 0 W/m 5,6 km/h (1 Bft)
05.06.2011 00:00 16,5 C 88 % 1007,8 hPa 0,0 l/m O-NO 0,00 h 0 W/m 5,1 km/h (1 Bft)
05.06.2011 01:00 14,5 C 94 % 1008,3 hPa 0,0 l/m SW 0,00 h 0 W/m 2,0 km/h (1 Bft)
05.06.2011 02:00 13,7 C 96 % 1008,1 hPa 0,0 l/m N 0,00 h 0 W/m 0,3 km/h (0 Bft)
05.06.2011 03:00 13,1 C 97 % 1008,2 hPa 0,0 l/m SW 0,00 h 0 W/m 3,2 km/h (1 Bft)
05.06.2011 04:00 12,3 C 97 % 1008,6 hPa 0,0 l/m N 0,00 h 0 W/m 1,6 km/h (1 Bft)
05.06.2011 05:00 12,2 C 98 % 1008,5 hPa 0,0 l/m N 0,00 h 11 W/m 2,5 km/h (1 Bft)
05.06.2011 06:00 13,1 C 99 % 1008,7 hPa 0,0 l/m S-SW 0,08 h 68 W/m 6,2 km/h (2 Bft)
05.06.2011 07:00 15,1 C 95 % 1008,5 hPa 0,0 l/m S-SO 1,00 h 225 W/m 6,6 km/h (2 Bft)
05.06.2011 08:00 17,1 C 89 % 1008,4 hPa 0,0 l/m S-SW 0,50 h 246 W/m 8,7 km/h (2 Bft)
05.06.2011 09:00 19,0 C 83 % 1008,2 hPa 0,0 l/m SW 0,75 h 487 W/m 11,8 km/h (2 Bft)
05.06.2011 10:00 20,7 C 76 % 1008,0 hPa 0,0 l/m SW 1,00 h 709 W/m 10,4 km/h (2 Bft)
05.06.2011 11:00 22,5 C 65 % 1007,8 hPa 0,0 l/m SW 1,00 h 853 W/m 14,0 km/h (3 Bft)
05.06.2011 12:00 23,5 C 59 % 1007,2 hPa 0,0 l/m W-SW 1,00 h 873 W/m 13,4 km/h (3 Bft)
05.06.2011 13:00 24,7 C 55 % 1006,6 hPa 0,0 l/m S-SW 0,75 h 778 W/m 11,7 km/h (2 Bft)
05.06.2011 14:00 25,8 C 47 % 1005,7 hPa 0,0 l/m W-SW 1,00 h 914 W/m 13,3 km/h (3 Bft)
05.06.2011 15:00 26,3 C 42 % 1005,2 hPa 0,0 l/m SW 1,00 h 853 W/m 15,0 km/h (3 Bft)
05.06.2011 16:00 25,9 C 44 % 1004,5 hPa 0,0 l/m W-SW 0,58 h 434 W/m 11,0 km/h (2 Bft)
05.06.2011 17:00 23,0 C 55 % 1004,1 hPa 0,0 l/m SW 0,00 h 53 W/m 6,1 km/h (2 Bft)
05.06.2011 18:00 21,4 C 67 % 1003,9 hPa 0,0 l/m SW 0,00 h 84 W/m 5,6 km/h (1 Bft)
05.06.2011 19:00 22,0 C 67 % 1003,8 hPa 0,0 l/m S-SW 0,42 h 134 W/m 4,4 km/h (1 Bft)
05.06.2011 20:00 20,7 C 75 % 1003,4 hPa 0,0 l/m N 0,00 h 25 W/m 1,3 km/h (1 Bft)
05.06.2011 21:00 18,9 C 81 % 1004,1 hPa 0,0 l/m W 0,00 h 6 W/m 1,7 km/h (1 Bft)
05.06.2011 22:00 17,6 C 85 % 1004,3 hPa 0,0 l/m N 0,00 h 0 W/m 0,3 km/h (0 Bft)
05.06.2011 23:00 16,4 C 88 % 1003,8 hPa 0,0 l/m N 0,00 h 0 W/m 0,0 km/h (0 Bft)
Min-Datum _ 01.06.11 30.05.11 05.06.11 - - - - 30.05.11
_ Min-Zeit 05:40 17:55 20:25 - - - - 00:00
Minimum _ 8,6 C 32 % 1003,1 hPa - - - - 0,0 km/h (0 Bft)
Max-Datum _ 30.05.11 05.06.11 02.06.11 31.05.11 - 30.05.11 02.06.11 02.06.11
_ Max-Zeit 15:55 04:05 11:25 19:35 - 06:20 12:50 14:55
Maximum _ 27,9 C 100 % 1025,7 hPa 5,8 l/m - 0,08 h 1111 W/m 40,2 km/h
O-NO (6 Bft)
Durchschnitt _ 16,1 C 79 % 1015,6 hPa #21,4 l/m O-NO #35:30 h 277 W/m 11,8 km/h (2 Bft)